Time;durP1;ratioP1;P1;durP2;ratioP2;P2;SDS_P1;SDS_P2;PMS_P1;PMS_P2;Temp;Humidity;BMP_temperature;BMP_pressure;BME280_temperature;BME280_humidity;BME280_pressure;Samples;Min_cycle;Max_cycle;Signal;HPM_P1;HPM_P2
2021/04/14 00:02:22;;;;;;;5.70;4.27;;;;;;;2.44;81.08;100047.88;5107037;28;20200;-82
2021/04/14 00:05:27;;;;;;;4.40;3.80;;;;;;;2.45;80.08;100050.38;5099891;22;21034;-83
2021/04/14 00:08:52;;;;;;;4.50;3.90;;;;;;;2.50;80.77;100042.78;5074153;22;20204;-82
2021/04/14 00:12:03;;;;;;;5.43;4.13;;;;;;;2.44;80.76;100027.53;5062031;28;20220;-82
2021/04/14 00:15:42;;;;;;;4.53;4.13;;;;;;;2.43;81.27;100031.16;5088091;28;20228;-82
2021/04/14 00:19:11;;;;;;;4.57;4.17;;;;;;;2.46;81.42;100043.25;5009130;28;20233;-83
2021/04/14 00:22:29;;;;;;;5.27;4.77;;;;;;;2.36;80.98;100045.19;5012139;28;20238;-82
2021/04/14 00:25:55;;;;;;;5.27;4.77;;;;;;;2.45;80.66;100044.25;4989321;28;20235;-82
2021/04/14 00:29:03;;;;;;;4.30;4.00;;;;;;;2.50;80.12;100042.78;4991280;28;20212;-83
2021/04/14 00:32:18;;;;;;;4.63;4.23;;;;;;;2.34;80.79;100031.28;4969696;28;20212;-82
2021/04/14 00:35:24;;;;;;;4.43;3.93;;;;;;;2.46;80.18;100030.88;5096220;22;20271;-83
2021/04/14 00:38:48;;;;;;;5.20;4.37;;;;;;;2.45;80.96;100039.78;5101051;22;20232;-82
2021/04/14 00:42:41;;;;;;;4.50;4.03;;;;;;;2.43;80.95;100043.56;5118878;22;20275;-82
2021/04/14 00:46:17;;;;;;;4.60;4.10;;;;;;;2.51;80.50;100059.50;5082877;23;20639;-84
2021/04/14 00:49:28;;;;;;;5.33;4.10;;;;;;;2.39;81.60;100032.47;5111559;22;20245;-83
2021/04/14 00:53:03;;;;;;;5.27;4.77;;;;;;;2.48;81.64;100043.91;5078007;28;20192;-83
2021/04/14 00:56:37;;;;;;;5.47;4.80;;;;;;;2.45;81.37;100039.78;5043752;28;20214;-83
2021/04/14 01:00:00;;;;;;;5.60;5.10;;;;;;;2.34;82.01;100045.34;5052410;28;20668;-84
2021/04/14 01:03:39;;;;;;;5.87;5.03;;;;;;;2.40;81.75;100038.59;5169738;22;20235;-83
2021/04/14 01:07:35;;;;;;;5.60;5.07;;;;;;;2.47;81.50;100039.63;5190227;22;20280;-83
2021/04/14 01:10:59;;;;;;;5.33;4.70;;;;;;;2.37;81.68;100034.47;5115103;22;20273;31
2021/04/14 01:14:07;;;;;;;5.27;4.77;;;;;;;2.46;81.36;100022.09;5015228;28;20234;-82
2021/04/14 01:17:31;;;;;;;5.17;4.60;;;;;;;2.43;81.02;100020.59;5023255;28;20206;-83
2021/04/14 01:21:03;;;;;;;6.43;5.57;;;;;;;2.43;82.23;100032.97;5034111;28;20218;-83
2021/04/14 01:24:21;;;;;;;5.57;5.07;;;;;;;2.49;81.88;100025.25;5053650;22;21987;-83
2021/04/14 01:27:47;;;;;;;5.53;4.93;;;;;;;2.47;82.33;100029.06;5105769;28;20173;-83
2021/04/14 01:31:42;;;;;;;6.03;5.23;;;;;;;2.44;82.42;100024.06;5104694;22;20223;-83
2021/04/14 01:35:07;;;;;;;6.07;5.17;;;;;;;2.34;82.74;100016.25;5119740;22;20217;-83
2021/04/14 01:38:16;;;;;;;6.00;5.20;;;;;;;2.38;82.56;100028.16;5113972;28;20230;-82
2021/04/14 01:41:20;;;;;;;5.53;4.93;;;;;;;2.42;82.51;100021.59;5118953;22;20207;-82
2021/04/14 01:44:34;;;;;;;5.20;4.80;;;;;;;2.34;83.25;100015.41;5104128;22;20534;31
2021/04/14 01:48:02;;;;;;;6.67;5.40;;;;;;;2.34;83.07;100021.53;5086145;23;20247;-81
2021/04/14 01:54:41;;;;;;;5.93;5.33;;;;;;;2.36;83.44;100024.88;4971884;28;20221;-82
2021/04/14 01:58:02;;;;;;;6.00;5.40;;;;;;;2.35;83.82;100039.06;4965422;28;20217;-82
2021/04/14 02:01:22;;;;;;;5.57;4.90;;;;;;;2.38;83.57;100030.81;4986750;23;20255;-82
2021/04/14 02:04:27;;;;;;;5.17;4.77;;;;;;;2.23;83.72;100021.81;5000862;28;20571;-82
2021/04/14 02:07:48;;;;;;;6.27;5.57;;;;;;;2.37;83.25;100023.06;5027969;23;20230;-82
2021/04/14 02:11:06;;;;;;;6.07;5.47;;;;;;;2.30;83.93;100025.47;5024638;28;20590;-82
2021/04/14 02:14:16;;;;;;;6.17;4.30;;;;;;;2.34;83.58;100037.41;5024064;23;20234;-83
2021/04/14 02:17:48;;;;;;;7.83;5.13;;;;;;;2.29;84.59;100018.53;4996490;28;20270;-83
2021/04/14 02:20:43;;;;;;;7.90;5.20;;;;;;;2.32;83.79;100015.59;5011005;23;20254;-82
2021/04/14 02:23:57;;;;;;;5.70;5.10;;;;;;;2.30;84.21;100020.19;5007293;28;20209;-82
2021/04/14 02:27:10;;;;;;;7.27;5.13;;;;;;;2.26;84.43;100010.09;5061201;22;20259;-82
2021/04/14 02:30:29;;;;;;;5.90;5.40;;;;;;;2.29;84.80;100010.59;5057773;28;20225;-82
2021/04/14 02:34:09;;;;;;;7.47;6.40;;;;;;;2.24;84.19;100025.31;5063645;28;20225;-82
2021/04/14 02:37:29;;;;;;;6.73;5.20;;;;;;;2.19;85.25;100009.91;5064799;28;20248;-82
2021/04/14 02:41:12;;;;;;;6.03;5.40;;;;;;;2.32;84.00;100014.75;5038937;23;20237;-81
2021/04/14 02:44:14;;;;;;;8.53;5.30;;;;;;;2.23;85.05;100008.59;5048324;28;20282;-81
2021/04/14 02:47:52;;;;;;;6.57;5.90;;;;;;;2.15;85.00;99996.16;5048569;28;20241;-82
2021/04/14 02:50:57;;;;;;;6.43;5.80;;;;;;;2.05;85.58;100003.34;5051036;28;20206;-82
2021/04/14 02:54:16;;;;;;;7.83;5.63;;;;;;;2.23;85.70;100013.88;5047186;28;20239;-82
2021/04/14 02:57:33;;;;;;;6.57;5.47;;;;;;;2.19;84.72;100007.25;5047945;28;20213;-82
2021/04/14 03:00:42;;;;;;;6.50;5.90;;;;;;;2.14;85.60;100006.91;5043301;28;20276;-82
2021/04/14 03:03:49;;;;;;;7.30;6.07;;;;;;;2.03;86.73;100005.34;5029586;23;20210;-81
2021/04/14 03:06:56;;;;;;;8.97;6.37;;;;;;;2.13;86.50;100013.16;5057985;23;20222;-81
2021/04/14 03:09:56;;;;;;;6.43;5.83;;;;;;;2.20;84.66;100020.31;5046915;23;20285;-81
2021/04/14 03:13:09;;;;;;;9.27;5.40;;;;;;;2.20;85.37;100024.75;5084375;28;20224;-82
2021/04/14 03:16:24;;;;;;;6.60;5.57;;;;;;;2.17;85.12;100011.88;5092679;23;20228;-82
2021/04/14 03:19:26;;;;;;;7.20;5.83;;;;;;;2.16;86.47;100023.41;5072484;28;20246;-82
2021/04/14 03:22:19;;;;;;;7.17;5.43;;;;;;;2.01;86.82;99991.44;5086886;28;20192;-82
2021/04/14 03:25:45;;;;;;;8.50;6.40;;;;;;;2.17;85.95;100006.56;5048676;23;20246;-82
2021/04/14 03:28:51;;;;;;;9.23;6.00;;;;;;;2.16;85.73;100012.84;5049827;28;20208;-81
2021/04/14 03:32:13;;;;;;;7.57;6.30;;;;;;;2.20;86.66;100019.47;5049984;28;20214;-81
2021/04/14 03:35:30;;;;;;;7.53;6.10;;;;;;;2.22;85.52;100006.94;5054286;23;20251;-82
2021/04/14 03:38:47;;;;;;;8.10;6.20;;;;;;;2.31;85.03;100021.88;5029982;28;20247;-82
2021/04/14 03:41:48;;;;;;;6.93;6.23;;;;;;;2.32;85.29;100015.59;5064125;23;20213;-81
2021/04/14 03:45:10;;;;;;;8.27;6.70;;;;;;;2.25;84.97;100019.00;5052581;28;20225;-81
2021/04/14 03:48:12;;;;;;;6.93;6.23;;;;;;;2.33;84.55;100013.78;5081387;22;20241;-81
2021/04/14 03:51:25;;;;;;;8.93;7.00;;;;;;;2.30;84.29;100011.44;5148641;22;20225;-81
2021/04/14 03:54:39;;;;;;;8.53;7.63;;;;;;;2.30;84.13;100004.34;5065712;22;20232;-82
2021/04/14 03:58:16;;;;;;;8.97;7.07;;;;;;;2.36;83.41;100018.75;5060608;22;20238;-82
2021/04/14 04:01:17;;;;;;;9.03;6.73;;;;;;;2.40;83.43;100023.56;5029826;28;20252;-81
2021/04/14 04:04:40;;;;;;;9.23;6.63;;;;;;;2.26;82.62;100003.00;5026055;28;20238;-82
2021/04/14 04:07:58;;;;;;;8.97;6.60;;;;;;;2.60;81.30;100017.06;5038083;23;20239;-82
2021/04/14 04:10:48;;;;;;;7.43;6.67;;;;;;;2.59;81.30;100007.44;5047500;28;20257;-82
2021/04/14 04:13:59;;;;;;;8.30;6.63;;;;;;;2.56;81.06;100022.81;5047676;28;20224;-82
2021/04/14 04:17:04;;;;;;;8.53;6.93;;;;;;;2.53;80.79;100007.25;5048905;28;20221;-82
2021/04/14 04:20:22;;;;;;;9.87;6.97;;;;;;;2.58;79.92;100013.72;5009677;28;20223;-81
2021/04/14 04:23:53;;;;;;;8.47;7.40;;;;;;;2.54;80.58;100030.91;5047430;23;20233;-82
2021/04/14 04:27:14;;;;;;;9.60;7.20;;;;;;;2.72;79.57;100022.88;5058643;28;20513;-82
2021/04/14 04:30:17;;;;;;;8.60;7.27;;;;;;;2.72;79.90;100032.63;5066708;23;20243;-82
2021/04/14 04:33:36;;;;;;;8.70;7.80;;;;;;;2.80;79.74;100040.63;5084458;22;20348;-83
2021/04/14 04:36:45;;;;;;;9.20;7.37;;;;;;;2.74;79.80;100035.94;5034981;28;20222;-80
2021/04/14 04:40:08;;;;;;;9.23;7.47;;;;;;;2.78;79.26;100035.47;5039362;28;20245;-82
2021/04/14 04:43:43;;;;;;;9.53;7.30;;;;;;;2.86;78.72;100029.38;5059137;23;20263;-82
2021/04/14 04:47:00;;;;;;;9.73;7.27;;;;;;;2.96;78.64;100030.06;5079122;28;20245;-80
2021/04/14 04:50:20;;;;;;;11.20;7.40;;;;;;;2.91;78.88;100032.34;5094376;22;20264;-82
2021/04/14 04:53:47;;;;;;;10.33;7.37;;;;;;;3.00;78.68;100039.34;5101989;23;20282;-82
2021/04/14 04:57:10;;;;;;;9.37;6.80;;;;;;;3.03;77.60;100034.53;5051751;28;20235;-81
2021/04/14 05:00:27;;;;;;;10.80;7.33;;;;;;;3.09;77.28;100046.31;5096614;28;20219;-81
2021/04/14 05:03:42;;;;;;;12.33;6.90;;;;;;;3.19;76.47;100047.00;5083370;28;20161;-82
2021/04/14 05:07:05;;;;;;;10.07;6.60;;;;;;;3.13;76.94;100049.50;5092033;22;20215;-81
2021/04/14 05:10:02;;;;;;;9.50;6.37;;;;;;;3.24;75.82;100036.75;5091139;22;20275;-82
2021/04/14 05:13:13;;;;;;;7.73;6.10;;;;;;;3.39;75.18;100040.44;5087609;22;20299;-80
2021/04/14 05:16:49;;;;;;;8.47;6.37;;;;;;;3.37;75.45;100045.03;5121303;22;20232;-81
2021/04/14 05:20:18;;;;;;;8.80;5.93;;;;;;;3.62;73.97;100056.50;5061622;22;20205;-82
2021/04/14 05:24:12;;;;;;;7.60;6.13;;;;;;;3.72;73.90;100075.72;5086946;28;20193;-80
2021/04/14 05:27:29;;;;;;;8.30;6.13;;;;;;;3.72;73.82;100051.88;5103510;22;20232;-81
2021/04/14 05:30:32;;;;;;;9.27;7.10;;;;;;;3.74;73.94;100057.00;5090539;23;20221;-81
2021/04/14 05:34:05;;;;;;;8.17;6.67;;;;;;;3.94;73.03;100072.41;5079689;28;20284;-81
2021/04/14 05:37:09;;;;;;;8.03;7.10;;;;;;;3.89;72.60;100056.19;5087815;28;20193;-81
2021/04/14 05:40:18;;;;;;;9.30;7.23;;;;;;;3.91;73.46;100070.09;5089260;28;20291;-81
2021/04/14 05:43:54;;;;;;;10.57;7.70;;;;;;;4.22;72.79;100058.78;5082334;22;20240;-80
2021/04/14 05:46:59;;;;;;;8.57;7.30;;;;;;;4.24;72.44;100059.47;5063782;28;20286;-82
2021/04/14 05:50:36;;;;;;;14.10;9.00;;;;;;;4.27;72.82;100064.41;5105289;28;20216;-81
2021/04/14 05:53:40;;;;;;;9.60;7.87;;;;;;;4.34;72.29;100060.91;5103539;28;20639;-81
2021/04/14 05:56:57;;;;;;;10.37;7.67;;;;;;;4.20;72.97;100056.31;5097067;28;20250;-81
2021/04/14 06:00:13;;;;;;;8.40;7.23;;;;;;;4.33;72.13;100050.50;5097859;28;20620;-81
2021/04/14 06:03:25;;;;;;;8.73;6.93;;;;;;;4.11;72.00;100054.66;5106861;28;20223;-81
2021/04/14 06:06:32;;;;;;;10.87;7.90;;;;;;;4.41;72.34;100064.56;5087650;23;20227;-83
2021/04/14 06:09:48;;;;;;;8.43;6.40;;;;;;;4.36;70.68;100052.78;5084234;28;20265;-81
2021/04/14 06:13:55;;;;;;;8.20;6.60;;;;;;;4.50;70.87;100070.66;5095581;28;20234;-81
2021/04/14 06:17:28;;;;;;;9.77;6.30;;;;;;;4.69;69.47;100059.66;5086100;28;20221;-82
2021/04/14 06:20:17;;;;;;;7.17;5.57;;;;;;;4.75;70.05;100045.72;5084835;28;20279;-81
2021/04/14 06:23:08;;;;;;;8.80;7.60;;;;;;;4.80;70.04;100061.97;5074611;23;20304;-80
2021/04/14 06:29:16;;;;;;;7.33;5.70;;;;;;;4.99;68.70;100055.41;5104679;23;20213;-82
2021/04/14 06:32:27;;;;;;;6.80;6.10;;;;;;;4.90;68.38;100056.41;5085165;23;20308;-81
2021/04/14 06:36:09;;;;;;;9.17;5.60;;;;;;;5.20;67.72;100058.28;5068880;28;20231;-81
2021/04/14 06:39:38;;;;;;;6.77;6.10;;;;;;;5.04;67.03;100041.63;5202908;22;20349;-81
2021/04/14 06:43:13;;;;;;;7.67;5.97;;;;;;;5.33;67.40;100065.66;5060231;28;20240;-80
2021/04/14 06:46:40;;;;;;;7.83;5.90;;;;;;;5.28;67.29;100057.38;5037604;28;20220;-83
2021/04/14 06:50:17;;;;;;;6.43;5.60;;;;;;;5.54;66.09;100062.38;5046164;28;20204;-82
2021/04/14 06:53:45;;;;;;;7.93;5.07;;;;;;;5.69;65.76;100057.97;5027734;28;20673;-81
2021/04/14 06:56:51;;;;;;;6.20;5.37;;;;;;;5.76;65.24;100049.09;5050724;28;20237;-81
2021/04/14 06:59:59;;;;;;;8.67;5.13;;;;;;;5.86;64.68;100066.63;5049538;28;20232;-82
2021/04/14 07:03:05;;;;;;;7.13;5.17;;;;;;;5.99;64.19;100058.91;5042911;28;20231;-81
2021/04/14 07:06:02;;;;;;;5.80;4.93;;;;;;;5.99;63.08;100064.22;5048229;28;20225;-82
2021/04/14 07:09:03;;;;;;;6.93;5.63;;;;;;;6.14;63.53;100076.56;5025443;28;20229;-82
2021/04/14 07:11:35;;;;;;;6.87;6.03;;;;;;;6.27;63.91;100051.16;5053579;28;20684;-81
2021/04/14 07:14:19;;;;;;;7.03;5.80;;;;;;;6.10;63.93;100047.84;5104591;22;20691;-81
2021/04/14 07:17:10;;;;;;;8.83;6.50;;;;;;;6.35;63.11;100057.22;5085632;28;20635;-82
2021/04/14 07:20:12;;;;;;;7.40;6.40;;;;;;;6.68;62.87;100071.00;5100010;22;20235;-81
2021/04/14 07:23:41;;;;;;;7.17;6.47;;;;;;;6.56;62.65;100083.13;5071308;28;20193;-83
2021/04/14 07:26:59;;;;;;;9.83;6.47;;;;;;;6.23;63.37;100079.13;5049254;28;20232;-81
2021/04/14 07:30:23;;;;;;;6.43;5.83;;;;;;;6.04;64.46;100075.97;5087785;28;20278;-82
2021/04/14 07:34:13;;;;;;;6.63;5.43;;;;;;;5.95;65.31;100076.22;5068611;28;20617;-81
2021/04/14 07:37:58;;;;;;;8.37;5.97;;;;;;;6.11;64.67;100092.88;5056312;28;20236;-82
2021/04/14 07:42:24;;;;;;;7.67;5.93;;;;;;;6.53;63.29;100092.28;5075010;28;20170;-82
2021/04/14 07:46:17;;;;;;;6.93;5.60;;;;;;;6.84;62.09;100083.31;4981149;28;20203;-83
2021/04/14 07:49:23;;;;;;;10.10;7.13;;;;;;;7.04;61.17;100073.75;4952829;28;20246;-82
2021/04/14 07:53:26;;;;;;;7.33;5.70;;;;;;;7.28;59.31;100088.59;4979821;23;20227;-81
2021/04/14 07:56:55;;;;;;;6.67;5.20;;;;;;;7.42;59.50;100091.22;5077181;23;20249;-83
2021/04/14 08:01:04;;;;;;;7.40;5.40;;;;;;;7.17;59.17;100086.41;5053524;23;20233;-81
2021/04/14 08:04:35;;;;;;;6.73;5.20;;;;;;;7.16;58.49;100084.75;4995619;28;20222;-82
2021/04/14 08:08:23;;;;;;;5.43;4.93;;;;;;;7.20;58.72;100083.34;4992817;28;20225;-82
2021/04/14 08:12:25;;;;;;;6.33;4.87;;;;;;;7.28;58.79;100097.41;5089622;23;20313;-81
2021/04/14 08:19:39;;;;;;;5.17;4.40;;;;;;;7.60;56.44;100082.81;5074685;23;20240;-82
2021/04/14 08:23:21;;;;;;;7.03;5.20;;;;;;;7.31;57.47;100075.72;5069021;23;20217;-83
2021/04/14 08:26:27;;;;;;;6.10;4.57;;;;;;;7.64;56.14;100069.91;5018017;23;20227;-82
2021/04/14 08:29:51;;;;;;;6.87;4.90;;;;;;;7.87;56.00;100082.06;4944554;23;20210;-81
2021/04/14 08:33:33;;;;;;;5.80;3.93;;;;;;;7.93;54.47;100059.13;5006249;28;20548;-82
2021/04/14 08:37:16;;;;;;;5.03;4.00;;;;;;;7.96;54.19;100086.25;5022506;28;20245;-82
2021/04/14 08:40:57;;;;;;;6.00;3.63;;;;;;;7.60;54.38;100068.66;5028508;28;20578;-82
2021/04/14 08:44:39;;;;;;;5.27;4.20;;;;;;;8.40;53.64;100077.16;5049805;23;20672;-81
2021/04/14 08:51:58;;;;;;;6.53;4.37;;;;;;;8.46;52.82;100076.38;5050593;28;20228;-83
2021/04/14 08:59:00;;;;;;;5.20;3.60;;;;;;;8.97;51.36;100068.06;5064238;28;20235;-82
2021/04/14 09:02:14;;;;;;;4.00;3.50;;;;;;;9.16;51.57;100056.63;5071637;28;20276;-82
2021/04/14 09:06:07;;;;;;;5.30;4.00;;;;;;;9.51;50.57;100076.91;5058425;28;20229;-82
2021/04/14 09:09:30;;;;;;;6.90;4.47;;;;;;;9.72;51.11;100066.03;5026489;23;20233;-82
2021/04/14 09:13:01;;;;;;;5.53;4.23;;;;;;;9.62;49.51;100067.44;5063493;28;20233;-82
2021/04/14 09:23:58;;;;;;;5.73;4.17;;;;;;;9.21;49.45;100049.66;5057778;23;20218;-82
2021/04/14 09:27:27;;;;;;;4.83;4.03;;;;;;;9.10;49.16;100058.25;5060583;22;20297;-82
2021/04/14 09:30:43;;;;;;;5.67;4.07;;;;;;;8.99;49.72;100072.19;5046560;28;20257;-82
2021/04/14 09:34:07;;;;;;;4.27;3.80;;;;;;;8.77;50.85;100067.97;5054513;28;20244;-81
2021/04/14 09:37:34;;;;;;;5.00;4.30;;;;;;;8.73;50.69;100051.50;5072798;23;20244;-82
2021/04/14 09:40:40;;;;;;;6.97;5.80;;;;;;;9.06;51.44;100059.66;5042274;28;20685;-81
2021/04/14 09:43:40;;;;;;;6.53;5.40;;;;;;;9.24;52.49;100045.75;5065273;28;20206;-82
2021/04/14 09:47:00;;;;;;;6.97;6.20;;;;;;;9.70;51.71;100053.91;5052741;28;20289;-81
2021/04/14 09:50:21;;;;;;;7.40;6.20;;;;;;;9.48;53.71;100061.25;5025749;28;20268;-82
2021/04/14 09:53:43;;;;;;;7.13;5.63;;;;;;;9.28;52.77;100060.38;5042922;28;20186;-82
2021/04/14 09:56:52;;;;;;;6.77;6.07;;;;;;;10.02;52.48;100066.50;5052145;28;20222;-82
2021/04/14 10:00:09;;;;;;;6.20;5.57;;;;;;;9.42;52.43;100053.22;5063391;23;20300;-82
2021/04/14 10:03:31;;;;;;;7.70;6.70;;;;;;;9.97;52.57;100060.94;5057632;28;20177;-82
2021/04/14 10:06:49;;;;;;;6.93;5.97;;;;;;;10.15;50.88;100055.81;5059969;28;20237;-83
2021/04/14 10:09:50;;;;;;;6.53;5.93;;;;;;;9.75;51.10;100054.13;5069271;28;20452;-83
2021/04/14 10:13:20;;;;;;;7.70;6.50;;;;;;;9.78;52.72;100047.53;5042733;23;20713;-82
2021/04/14 10:16:35;;;;;;;7.93;6.53;;;;;;;10.00;51.94;100047.13;5034796;28;20217;-82
2021/04/14 10:23:22;;;;;;;6.97;5.37;;;;;;;9.03;53.49;100038.69;5045322;28;20598;-82
2021/04/14 10:26:41;;;;;;;5.80;5.17;;;;;;;9.16;52.95;100049.44;5028872;28;20215;-82
2021/04/14 10:29:46;;;;;;;7.10;6.00;;;;;;;9.64;52.90;100044.84;5018772;28;20245;-81
2021/04/14 10:32:30;;;;;;;6.87;6.23;;;;;;;9.34;51.41;100035.50;5004705;28;20240;-82
2021/04/14 10:35:35;;;;;;;7.60;6.13;;;;;;;9.77;51.06;100051.22;5033812;23;20222;-82
2021/04/14 10:38:48;;;;;;;6.73;6.13;;;;;;;10.57;51.30;100046.50;5039453;28;20285;-81
2021/04/14 10:41:38;;;;;;;8.33;6.57;;;;;;;10.03;50.16;100038.66;5020822;28;20225;-82
2021/04/14 10:44:30;;;;;;;6.77;6.10;;;;;;;10.99;48.90;100031.72;5037533;28;20214;-82
2021/04/14 10:47:22;;;;;;;7.07;5.90;;;;;;;10.90;48.82;100024.13;5033378;28;20642;-84
2021/04/14 10:50:20;;;;;;;6.17;5.57;;;;;;;10.91;48.92;100040.00;5016388;28;20230;-82
2021/04/14 10:53:09;;;;;;;6.53;5.93;;;;;;;11.34;47.41;100028.66;5034167;28;20256;-81
2021/04/14 10:55:58;;;;;;;6.70;5.37;;;;;;;11.28;45.93;100022.31;5028770;28;20226;-82
2021/04/14 10:58:33;;;;;;;6.20;5.30;;;;;;;11.58;47.41;100011.78;5010218;28;20319;-82
2021/04/14 11:01:56;;;;;;;6.53;5.93;;;;;;;11.35;48.40;100014.22;5031273;28;20589;-81
2021/04/14 11:05:15;;;;;;;6.50;5.90;;;;;;;11.40;47.80;100004.50;5043116;28;20228;-81
2021/04/14 11:08:34;;;;;;;7.77;6.23;;;;;;;10.18;49.77;100005.53;5048060;28;20230;-81
2021/04/14 11:11:46;;;;;;;6.00;5.40;;;;;;;10.04;50.08;100008.19;5046375;28;20225;-82
2021/04/14 11:15:21;;;;;;;4.87;4.37;;;;;;;9.91;49.86;100005.53;5046070;28;20217;-81
2021/04/14 11:18:45;;;;;;;5.20;4.33;;;;;;;9.76;50.94;99993.38;5055670;23;20229;-80
2021/04/14 11:22:43;;;;;;;5.73;4.50;;;;;;;8.90;55.04;100019.09;5010643;23;20239;-81
2021/04/14 11:25:53;;;;;;;5.20;4.70;;;;;;;7.96;57.96;100029.38;5061261;23;20225;-80
2021/04/14 11:29:26;;;;;;;5.60;5.00;;;;;;;8.43;58.33;100022.56;5047005;23;20629;-80
2021/04/14 11:32:48;;;;;;;6.03;4.90;;;;;;;8.98;57.52;100011.75;5005543;28;20287;-80
2021/04/14 11:36:36;;;;;;;5.90;5.00;;;;;;;9.43;56.32;100017.41;5048700;23;20240;-81
2021/04/14 11:39:29;;;;;;;5.33;4.83;;;;;;;9.60;53.16;100008.00;5072985;23;20233;-81
2021/04/14 11:42:31;;;;;;;6.53;4.33;;;;;;;9.55;51.99;100023.81;5018352;28;20281;-81
2021/04/14 11:45:53;;;;;;;4.63;3.93;;;;;;;10.01;51.77;100019.34;5057775;23;20229;-82
2021/04/14 11:49:13;;;;;;;5.30;4.00;;;;;;;9.77;52.04;100011.91;5067074;28;20198;-81
2021/04/14 11:53:00;;;;;;;5.27;4.13;;;;;;;8.69;61.06;100020.84;5073437;22;20235;-81
2021/04/14 11:55:50;;;;;;;5.00;3.70;;;;;;;8.61;56.25;100021.03;5001001;28;20238;-80
2021/04/14 12:02:31;;;;;;;5.03;3.40;;;;;;;8.58;50.71;100017.94;4971028;28;20292;-81
2021/04/14 12:05:52;;;;;;;5.20;3.30;;;;;;;9.24;52.83;99998.44;5000123;23;20303;-81
2021/04/14 12:08:59;;;;;;;6.77;3.80;;;;;;;9.35;52.67;99999.72;5063802;23;20631;-81
2021/04/14 12:12:28;;;;;;;7.63;3.83;;;;;;;10.12;50.87;100005.31;5064364;23;20228;-81
2021/04/14 12:15:36;;;;;;;4.87;3.70;;;;;;;9.70;52.76;100019.13;5079679;22;20706;-81
2021/04/14 12:18:27;;;;;;;6.00;3.43;;;;;;;9.49;51.36;100019.28;5038232;28;20238;-82
2021/04/14 12:21:49;;;;;;;3.10;2.80;;;;;;;8.83;53.03;100019.91;5083642;22;20311;-81
2021/04/14 12:24:58;;;;;;;3.93;2.80;;;;;;;8.37;54.01;100014.31;5062516;28;20197;-81
2021/04/14 12:27:55;;;;;;;3.70;2.80;;;;;;;8.09;55.00;100007.31;5074023;28;20517;-81
2021/04/14 12:31:10;;;;;;;4.97;2.80;;;;;;;7.92;54.04;100004.09;5057877;28;20296;-81
2021/04/14 12:34:30;;;;;;;4.20;2.47;;;;;;;7.62;54.05;99975.94;5081526;22;20237;-81
2021/04/14 12:37:37;;;;;;;3.37;2.60;;;;;;;8.09;51.93;99994.78;5082912;22;20259;-81
2021/04/14 12:40:56;;;;;;;3.77;2.30;;;;;;;8.34;49.88;99974.66;5071745;28;20221;-81
2021/04/14 12:44:15;;;;;;;3.97;2.83;;;;;;;9.06;49.16;99975.97;5076847;23;20200;-81
2021/04/14 12:47:46;;;;;;;5.43;2.70;;;;;;;9.99;45.53;99985.75;5039620;23;20222;-81
2021/04/14 12:51:35;;;;;;;4.67;2.47;;;;;;;10.63;42.27;99983.22;5081423;23;20229;-81
2021/04/14 12:54:41;;;;;;;5.20;2.70;;;;;;;10.19;41.32;99981.25;5074865;23;20315;-81
2021/04/14 12:57:40;;;;;;;3.40;2.40;;;;;;;10.00;39.09;99961.47;5053002;28;20193;-81
2021/04/14 13:00:41;;;;;;;4.33;2.57;;;;;;;9.97;38.12;99951.19;5066809;23;20232;-81
2021/04/14 13:04:15;;;;;;;4.00;2.63;;;;;;;10.04;40.14;99959.19;5072535;28;20221;-81
2021/04/14 13:07:41;;;;;;;3.90;2.90;;;;;;;9.68;39.94;99954.28;5061955;23;20233;-81
2021/04/14 13:11:08;;;;;;;4.27;2.80;;;;;;;9.86;38.61;99941.09;5063119;23;20283;-81
2021/04/14 13:14:15;;;;;;;2.60;2.30;;;;;;;10.33;36.84;99931.16;5019761;28;20223;-81
2021/04/14 13:17:40;;;;;;;5.53;2.60;;;;;;;10.69;36.61;99930.59;5036181;23;20302;-82
2021/04/14 13:24:24;;;;;;;3.47;2.30;;;;;;;10.36;35.84;99936.91;5028715;23;20230;-81
2021/04/14 13:27:49;;;;;;;5.37;2.43;;;;;;;10.09;37.48;99935.28;5068643;23;20232;-81
2021/04/14 13:31:14;;;;;;;2.97;2.57;;;;;;;10.25;35.89;99926.84;5073729;28;20521;-82
2021/04/14 13:34:35;;;;;;;3.50;3.20;;;;;;;10.56;34.37;99923.44;5060035;28;20197;-82
2021/04/14 13:38:22;;;;;;;2.60;2.10;;;;;;;10.74;32.69;99923.56;5070803;23;20246;-81
2021/04/14 13:42:00;;;;;;;7.20;5.33;;;;;;;11.40;33.22;99913.28;5048068;28;20529;-83
2021/04/14 13:45:12;;;;;;;6.67;5.13;;;;;;;10.57;33.63;99923.25;5036677;23;20227;-82
2021/04/14 13:48:44;;;;;;;5.80;3.13;;;;;;;9.93;34.10;99922.38;4958071;28;20581;-81
2021/04/14 13:51:56;;;;;;;4.37;3.30;;;;;;;10.29;33.85;99920.03;4992163;28;20264;-82
2021/04/14 13:55:03;;;;;;;3.67;3.37;;;;;;;10.20;34.55;99933.88;5030206;23;20294;-81
2021/04/14 13:58:15;;;;;;;3.93;3.30;;;;;;;10.35;34.40;99916.53;5048577;28;20249;-81
2021/04/14 14:01:27;;;;;;;5.10;3.40;;;;;;;10.56;32.95;99921.59;5050275;28;20219;-81
2021/04/14 14:04:50;;;;;;;4.03;3.40;;;;;;;10.65;34.95;99926.72;5145867;23;20226;-81
2021/04/14 14:08:22;;;;;;;7.33;5.57;;;;;;;10.49;35.65;99922.66;5037314;28;20301;-81
2021/04/14 14:11:48;;;;;;;9.80;8.93;;;;;;;10.71;34.00;99920.50;5050356;28;20294;-81
2021/04/14 14:14:35;;;;;;;5.50;4.90;;;;;;;10.76;33.81;99923.38;5052657;23;20294;-81
2021/04/14 14:18:37;;;;;;;6.07;4.80;;;;;;;10.87;32.90;99926.19;5070227;28;20227;-81
2021/04/14 14:21:47;;;;;;;5.70;3.93;;;;;;;10.70;32.28;99917.00;5080017;23;20282;-81
2021/04/14 14:25:07;;;;;;;4.07;3.67;;;;;;;10.51;31.24;99917.91;5073869;23;20253;-81
2021/04/14 14:28:08;;;;;;;4.27;3.80;;;;;;;10.56;31.85;99920.78;5049110;28;20244;-81
2021/04/14 14:31:09;;;;;;;4.20;3.70;;;;;;;10.27;31.51;99908.72;5070905;23;20323;-81
2021/04/14 14:34:16;;;;;;;3.90;3.60;;;;;;;10.23;32.18;99920.06;5057822;28;20218;-81
2021/04/14 14:37:57;;;;;;;6.23;3.90;;;;;;;10.09;33.19;99929.94;5072400;28;20235;-81
2021/04/14 14:41:07;;;;;;;3.90;3.50;;;;;;;10.05;33.59;99908.13;5070298;28;20232;-81
2021/04/14 14:44:02;;;;;;;5.13;3.60;;;;;;;9.44;34.11;99910.25;5152260;23;20221;-81
2021/04/14 14:47:06;;;;;;;6.10;2.90;;;;;;;9.41;33.27;99916.00;5054275;28;20202;-81
2021/04/14 14:50:30;;;;;;;9.33;3.30;;;;;;;9.29;33.02;99910.44;5058728;23;20225;-81
2021/04/14 14:53:29;;;;;;;3.47;3.10;;;;;;;9.63;33.71;99903.25;5052685;28;20229;-81
2021/04/14 14:56:54;;;;;;;3.77;3.33;;;;;;;9.63;33.76;99924.63;5017754;28;20205;-81
2021/04/14 15:00:20;;;;;;;4.70;3.77;;;;;;;9.18;34.48;99908.38;5041267;23;20228;-81
2021/04/14 15:03:38;;;;;;;3.77;3.00;;;;;;;9.15;35.23;99898.06;5041487;28;20201;-81
2021/04/14 15:06:48;;;;;;;4.50;3.10;;;;;;;9.05;36.25;99902.19;5027756;28;20237;-81
2021/04/14 15:09:46;;;;;;;3.73;2.47;;;;;;;9.07;35.32;99902.78;5023988;28;20301;-81
2021/04/14 15:12:34;;;;;;;6.20;2.50;;;;;;;9.32;35.16;99927.09;5010161;28;20230;-81
2021/04/14 15:15:35;;;;;;;3.47;3.00;;;;;;;9.65;35.39;99918.06;5027942;28;20220;-81
2021/04/14 15:18:39;;;;;;;3.90;2.97;;;;;;;9.62;35.09;99929.16;5044407;23;20245;-81
2021/04/14 15:21:29;;;;;;;4.57;2.97;;;;;;;9.55;35.29;99928.34;5046401;28;20209;-81
2021/04/14 15:24:29;;;;;;;5.73;3.20;;;;;;;9.46;36.05;99923.41;5040334;23;20241;-81
2021/04/14 15:27:30;;;;;;;4.50;2.67;;;;;;;9.29;34.69;99937.16;5049040;23;20312;-81
2021/04/14 15:30:41;;;;;;;4.37;2.80;;;;;;;9.14;33.28;99928.53;5051683;28;20167;-81
2021/04/14 15:34:03;;;;;;;4.17;2.70;;;;;;;8.90;34.31;99931.75;5078389;23;20226;-81
2021/04/14 15:37:20;;;;;;;3.93;2.53;;;;;;;9.02;34.92;99940.00;5081207;22;20213;-81
2021/04/14 15:40:38;;;;;;;3.97;2.50;;;;;;;9.06;35.11;99928.69;5046762;23;20219;-81
2021/04/14 15:44:12;;;;;;;4.10;2.87;;;;;;;9.10;36.56;99950.50;5068967;23;20225;-81
2021/04/14 15:47:28;;;;;;;4.23;2.60;;;;;;;8.57;36.69;99931.63;5074605;28;20236;-81
2021/04/14 15:50:56;;;;;;;2.67;2.30;;;;;;;8.42;37.13;99927.44;5049711;28;20221;-81
2021/04/14 15:54:24;;;;;;;4.80;2.40;;;;;;;8.72;37.19;99951.03;4977326;28;20286;-81
2021/04/14 15:57:52;;;;;;;6.13;3.27;;;;;;;8.70;35.70;99955.72;5032672;23;20217;-80
2021/04/14 16:01:30;;;;;;;9.63;4.30;;;;;;;8.49;35.21;99950.47;5073312;22;20233;-81
2021/04/14 16:04:53;;;;;;;85.97;28.03;;;;;;;8.32;36.68;99955.34;5048324;28;20614;-81
2021/04/14 16:08:15;;;;;;;5.00;3.70;;;;;;;8.34;37.04;99965.84;5046077;28;20226;-81
2021/04/14 16:11:26;;;;;;;4.73;2.80;;;;;;;8.37;36.85;99958.25;5032591;28;20230;-80